createdAt,value
2023-05-05T00:00:01.708Z,18.9
2023-05-05T00:15:01.397Z,18.96
2023-05-05T00:30:02.149Z,19.16
2023-05-05T00:45:01.931Z,19.17
2023-05-05T01:00:01.633Z,19.03
2023-05-05T01:15:01.743Z,19.27
2023-05-05T01:30:02.492Z,19.64
2023-05-05T01:45:02.225Z,19.79
2023-05-05T02:00:01.945Z,19.67
2023-05-05T02:15:01.660Z,19.16
2023-05-05T02:30:02.299Z,18.78
2023-05-05T02:45:01.938Z,18.19
2023-05-05T03:00:01.572Z,18.01
2023-05-05T03:15:02.525Z,17.94
2023-05-05T03:30:02.210Z,18.14
2023-05-05T03:45:01.858Z,18.1
2023-05-05T04:00:01.498Z,17.85
2023-05-05T04:15:02.156Z,17.75
2023-05-05T04:30:01.815Z,18.61
2023-05-05T04:45:01.487Z,18.65
2023-05-05T05:00:02.106Z,19.25
2023-05-05T05:15:01.734Z,22.21
2023-05-05T05:30:01.401Z,19.38
2023-05-05T05:45:02.129Z,17.68
2023-05-05T06:00:02.217Z,17.49
2023-05-05T06:15:02.131Z,18.34
2023-05-05T06:30:01.789Z,19.44
2023-05-05T06:45:01.447Z,20.11
2023-05-05T07:00:02.119Z,21.39
2023-05-05T07:15:09.370Z,24.59
2023-05-05T07:30:01.394Z,24.53
2023-05-05T07:45:02.056Z,27.15
2023-05-05T08:00:01.670Z,30.39
2023-05-05T08:15:01.321Z,32.71
2023-05-05T08:30:01.981Z,34.89
2023-05-05T08:45:01.668Z,34.84
2023-05-05T09:00:01.344Z,33.98
2023-05-05T09:15:02.327Z,39.08
2023-05-05T09:30:01.983Z,41.16
2023-05-05T09:45:01.656Z,42.17
2023-05-05T10:00:02.307Z,41.5
2023-05-05T10:15:02.029Z,44.6
2023-05-05T10:30:01.669Z,48.61
2023-05-05T10:45:02.386Z,48.95
2023-05-05T11:00:02.084Z,45.86
2023-05-05T11:15:01.749Z,41.67
2023-05-05T11:30:02.459Z,45.53
2023-05-05T11:45:02.087Z,44.86
2023-05-05T12:00:01.757Z,47.19
2023-05-05T12:15:02.383Z,46.03
2023-05-05T12:30:02.043Z,41.28
2023-05-05T12:45:01.666Z,39.04
2023-05-05T13:00:02.281Z,37.85
2023-05-05T13:15:01.910Z,36.86
2023-05-05T13:30:01.567Z,38.02
2023-05-05T13:45:02.258Z,37.11
2023-05-05T14:00:01.908Z,36.23
2023-05-05T14:15:01.555Z,34.1
2023-05-05T14:30:02.197Z,31.02
2023-05-05T14:45:01.808Z,24.62
2023-05-05T15:00:01.406Z,21.31
2023-05-05T15:15:02.036Z,20.57
2023-05-05T15:30:01.690Z,20
2023-05-05T15:45:02.322Z,19.82
2023-05-05T16:00:02.044Z,19.92
2023-05-05T16:15:01.711Z,20.21
2023-05-05T16:30:01.352Z,20.01
2023-05-05T16:45:01.966Z,20.33
2023-05-05T17:00:01.557Z,20.25
2023-05-05T17:15:02.170Z,20.61
2023-05-05T17:30:01.812Z,21.07
2023-05-05T17:45:01.436Z,21.41
2023-05-05T18:00:02.073Z,22.43
2023-05-05T18:15:01.715Z,21.56
2023-05-05T18:30:01.342Z,20.84
2023-05-05T18:45:01.990Z,20.87
2023-05-05T19:00:01.624Z,19.96
2023-05-05T19:15:01.240Z,19.55
2023-05-05T19:30:01.865Z,19.17
2023-05-05T19:45:01.483Z,18.81
2023-05-05T20:00:02.237Z,18.44
2023-05-05T20:15:01.863Z,18.56
2023-05-05T20:30:01.612Z,19.02
2023-05-05T20:45:01.349Z,19.77
2023-05-05T21:00:02.062Z,20.37
2023-05-05T21:15:01.755Z,20.3
2023-05-05T21:30:01.490Z,19.45
2023-05-05T21:45:01.219Z,19.23
2023-05-05T22:00:02.085Z,19.01
2023-05-05T22:15:01.824Z,18.3
2023-05-05T22:30:01.589Z,18.2
2023-05-05T22:45:01.266Z,18.19
2023-05-05T23:00:01.920Z,18.01
2023-05-05T23:15:01.575Z,17.84
2023-05-05T23:30:01.306Z,17.67
2023-05-05T23:45:02.028Z,17.27
